Time;durP1;ratioP1;P1;durP2;ratioP2;P2;SDS_P1;SDS_P2;PMS_P1;PMS_P2;Temp;Humidity;BMP_temperature;BMP_pressure;BME280_temperature;BME280_humidity;BME280_pressure;Samples;Min_cycle;Max_cycle;Signal;HPM_P1;HPM_P2
2023/07/03 00:01:02;;;;;;;;;;;16.80;99.90;;;;;;5080123;28;20001;-69
2023/07/03 00:03:30;;;;;;;;;;;16.70;1.00;;;;;;5080665;28;20001;-68
2023/07/03 00:05:56;;;;;;;;;;;16.70;99.90;;;;;;5080451;28;20027;-69
2023/07/03 00:08:23;;;;;;;;;;;16.60;99.90;;;;;;5080593;28;20036;-68
2023/07/03 00:10:50;;;;;;;;;;;16.60;99.90;;;;;;5080406;28;20092;-68
2023/07/03 00:13:16;;;;;;;;;;;16.60;33.30;;;;;;5079611;28;20307;-68
2023/07/03 00:15:43;;;;;;;;;;;16.60;1.00;;;;;;5078383;28;20386;-69
2023/07/03 00:18:10;;;;;;;;;;;16.60;1.00;;;;;;5079052;28;20001;-68
2023/07/03 00:20:38;;;;;;;;;;;16.50;1.00;;;;;;5079510;28;20059;-68
2023/07/03 00:23:04;;;;;;;;;;;16.50;99.90;;;;;;5078053;28;20024;-69
2023/07/03 00:25:31;;;;;;;;;;;16.50;99.90;;;;;;5078754;28;20077;-68
2023/07/03 00:27:58;;;;;;;;;;;16.50;99.90;;;;;;5078448;28;20088;-67
2023/07/03 00:30:24;;;;;;;;;;;16.40;99.90;;;;;;5079741;28;20085;-68
2023/07/03 00:32:51;;;;;;;;;;;16.40;99.90;;;;;;5078696;28;20057;-68
2023/07/03 00:35:18;;;;;;;;;;;16.40;99.90;;;;;;5078969;28;20374;-68
2023/07/03 00:37:46;;;;;;;;;;;16.40;99.90;;;;;;5078759;28;20021;-68
2023/07/03 00:40:13;;;;;;;;;;;16.30;99.90;;;;;;5079689;28;20112;-68
2023/07/03 00:42:40;;;;;;;;;;;16.30;99.90;;;;;;5079899;28;20001;-68
2023/07/03 00:45:09;;;;;;;;;;;16.30;99.90;;;;;;5080265;28;20073;-68
2023/07/03 00:47:35;;;;;;;;;;;16.30;99.90;;;;;;5081694;28;20005;-69
2023/07/03 00:50:02;;;;;;;;;;;16.30;99.90;;;;;;5083505;28;20005;-68
2023/07/03 00:52:29;;;;;;;;;;;16.20;99.90;;;;;;5083876;28;20023;-69
2023/07/03 00:54:58;;;;;;;;;;;16.20;99.90;;;;;;5083627;28;20065;-69
2023/07/03 00:57:25;;;;;;;;;;;16.20;99.90;;;;;;5082890;28;20005;-68
2023/07/03 00:59:52;;;;;;;;;;;16.20;99.90;;;;;;5082731;28;20001;-69
2023/07/03 01:02:22;;;;;;;;;;;16.20;99.90;;;;;;5082567;28;20001;-68
2023/07/03 01:04:54;;;;;;;;;;;16.10;99.90;;;;;;5082161;28;20389;-69
2023/07/03 01:07:23;;;;;;;;;;;16.10;99.90;;;;;;5083248;28;20335;-68
2023/07/03 01:09:52;;;;;;;;;;;16.10;99.90;;;;;;5082673;28;20049;-68
2023/07/03 01:12:21;;;;;;;;;;;16.00;99.90;;;;;;5083778;28;20414;-68
2023/07/03 01:14:48;;;;;;;;;;;16.00;99.90;;;;;;5084229;28;20111;-68
2023/07/03 01:17:18;;;;;;;;;;;16.00;99.90;;;;;;5083870;28;20048;-69
2023/07/03 01:19:46;;;;;;;;;;;15.90;99.90;;;;;;5083079;28;20463;-69
2023/07/03 01:22:15;;;;;;;;;;;15.90;99.90;;;;;;5083317;28;20041;-68
2023/07/03 01:24:45;;;;;;;;;;;15.90;99.90;;;;;;5083972;28;20016;-69
2023/07/03 01:27:13;;;;;;;;;;;16.00;99.90;;;;;;5084276;28;20072;-68
2023/07/03 01:29:41;;;;;;;;;;;16.00;99.90;;;;;;5082010;28;20393;-67
2023/07/03 01:32:09;;;;;;;;;;;16.00;99.90;;;;;;5082021;28;20057;-68
2023/07/03 01:34:43;;;;;;;;;;;16.00;99.90;;;;;;5080987;28;20001;-68
2023/07/03 01:37:11;;;;;;;;;;;16.00;99.90;;;;;;5081332;28;20028;-69
2023/07/03 01:39:39;;;;;;;;;;;15.90;99.90;;;;;;5081032;28;20021;-68
2023/07/03 01:42:08;;;;;;;;;;;16.00;99.90;;;;;;5081410;28;20004;-69
2023/07/03 01:44:37;;;;;;;;;;;16.00;99.90;;;;;;5080979;28;20533;-69
2023/07/03 01:47:05;;;;;;;;;;;16.00;99.90;;;;;;5081348;28;20012;-69
2023/07/03 01:49:32;;;;;;;;;;;16.10;99.90;;;;;;5081022;28;20001;-69
2023/07/03 01:52:03;;;;;;;;;;;16.10;99.90;;;;;;5080600;28;20001;-69
2023/07/03 01:54:36;;;;;;;;;;;16.20;99.90;;;;;;5081459;28;20005;-69
2023/07/03 01:57:03;;;;;;;;;;;16.20;99.90;;;;;;5079712;28;20438;-69
2023/07/03 01:59:33;;;;;;;;;;;16.20;99.90;;;;;;5079923;28;20059;-68
2023/07/03 02:02:02;;;;;;;;;;;16.10;99.90;;;;;;5079760;28;20051;-69
2023/07/03 02:04:31;;;;;;;;;;;16.10;99.90;;;;;;5079926;28;20380;-69
2023/07/03 02:07:02;;;;;;;;;;;16.10;99.90;;;;;;5080258;28;20051;-68
2023/07/03 02:09:29;;;;;;;;;;;16.20;99.90;;;;;;5079958;28;20001;-68
2023/07/03 02:11:56;;;;;;;;;;;16.20;99.90;;;;;;5080446;28;20329;-67
2023/07/03 02:14:24;;;;;;;;;;;16.20;99.90;;;;;;5079659;28;20001;-69
2023/07/03 02:16:52;;;;;;;;;;;16.20;99.90;;;;;;5079786;28;20001;-69
2023/07/03 02:19:22;;;;;;;;;;;16.20;99.90;;;;;;5079217;28;20001;-68
2023/07/03 02:21:49;;;;;;;;;;;16.20;99.90;;;;;;5079175;28;20101;-69
2023/07/03 02:24:16;;;;;;;;;;;16.20;99.90;;;;;;5079167;28;20005;-69
2023/07/03 02:26:43;;;;;;;;;;;16.20;99.90;;;;;;5078019;28;20024;-69
2023/07/03 02:29:10;;;;;;;;;;;16.20;99.90;;;;;;5079303;28;20161;-69
2023/07/03 02:31:37;;;;;;;;;;;16.20;99.90;;;;;;5078642;28;20012;-69
2023/07/03 02:34:05;;;;;;;;;;;16.20;99.90;;;;;;5079627;28;20001;-69
2023/07/03 02:36:34;;;;;;;;;;;16.20;99.90;;;;;;5079433;28;20065;-69
2023/07/03 02:39:01;;;;;;;;;;;16.20;99.90;;;;;;5079335;28;19997;-68
2023/07/03 02:41:28;;;;;;;;;;;16.20;99.90;;;;;;5079962;28;20027;-68
2023/07/03 02:43:54;;;;;;;;;;;16.20;99.90;;;;;;5080490;28;20011;-69
2023/07/03 02:46:21;;;;;;;;;;;16.20;99.90;;;;;;5079321;28;20017;-69
2023/07/03 02:48:48;;;;;;;;;;;16.20;99.90;;;;;;5079552;28;20001;-69
2023/07/03 02:51:16;;;;;;;;;;;16.20;99.90;;;;;;5079540;28;20039;-69
2023/07/03 02:53:43;;;;;;;;;;;16.20;99.90;;;;;;5080903;28;20069;-68
2023/07/03 02:56:09;;;;;;;;;;;16.10;99.90;;;;;;5080415;28;20043;-68
2023/07/03 02:58:36;;;;;;;;;;;16.20;99.90;;;;;;5080204;28;20059;-68
2023/07/03 03:01:03;;;;;;;;;;;16.20;99.90;;;;;;5080771;28;20001;-68
2023/07/03 03:03:30;;;;;;;;;;;16.20;99.90;;;;;;5080195;28;20012;-68
2023/07/03 03:05:57;;;;;;;;;;;16.20;99.90;;;;;;5079700;28;20089;-69
2023/07/03 03:08:25;;;;;;;;;;;16.20;99.90;;;;;;5080285;28;20154;-69
2023/07/03 03:10:52;;;;;;;;;;;16.20;99.90;;;;;;5079588;28;20035;-68
2023/07/03 03:13:19;;;;;;;;;;;16.20;99.90;;;;;;5079660;28;20009;-69
2023/07/03 03:15:45;;;;;;;;;;;16.20;99.90;;;;;;5079979;28;20005;-68
2023/07/03 03:18:12;;;;;;;;;;;16.20;99.90;;;;;;5081054;28;20012;-68
2023/07/03 03:20:39;;;;;;;;;;;16.20;99.90;;;;;;5080277;28;20002;-69
2023/07/03 03:23:06;;;;;;;;;;;16.20;99.90;;;;;;5078175;28;20460;-68
2023/07/03 03:25:34;;;;;;;;;;;16.20;99.90;;;;;;5077705;28;20425;-68
2023/07/03 03:28:01;;;;;;;;;;;16.10;99.90;;;;;;5077589;28;20044;-69
2023/07/03 03:30:27;;;;;;;;;;;16.10;99.90;;;;;;5078073;28;20052;-68
2023/07/03 03:32:54;;;;;;;;;;;16.10;99.90;;;;;;5078545;28;20002;-69
2023/07/03 03:35:21;;;;;;;;;;;16.10;99.90;;;;;;5078864;28;20001;-69
2023/07/03 03:37:47;;;;;;;;;;;16.10;99.90;;;;;;5078547;28;20043;-67
2023/07/03 03:40:14;;;;;;;;;;;16.10;99.90;;;;;;5078421;28;20007;-69
2023/07/03 03:42:42;;;;;;;;;;;16.10;99.90;;;;;;5078998;28;20039;-68
2023/07/03 03:45:09;;;;;;;;;;;16.20;99.90;;;;;;5078826;28;20080;-69
2023/07/03 03:47:35;;;;;;;;;;;16.20;99.90;;;;;;5079806;28;20052;-68
2023/07/03 03:50:02;;;;;;;;;;;16.20;99.90;;;;;;5080129;28;20065;-69
2023/07/03 03:52:29;;;;;;;;;;;16.20;99.90;;;;;;5078722;28;20028;-68
2023/07/03 03:54:56;;;;;;;;;;;16.30;99.90;;;;;;5080144;28;20066;-69
2023/07/03 03:57:22;;;;;;;;;;;16.30;99.90;;;;;;5078519;28;20064;-69
2023/07/03 03:59:50;;;;;;;;;;;16.30;99.90;;;;;;5078210;28;19998;-69
2023/07/03 04:02:17;;;;;;;;;;;16.40;99.90;;;;;;5080020;28;20072;-68
2023/07/03 04:04:44;;;;;;;;;;;16.40;99.90;;;;;;5079693;28;20001;-68
2023/07/03 04:07:11;;;;;;;;;;;16.40;99.90;;;;;;5079800;28;20449;-68
2023/07/03 04:09:38;;;;;;;;;;;16.40;99.90;;;;;;5079286;28;20064;-68
2023/07/03 04:12:05;;;;;;;;;;;16.50;99.90;;;;;;5078652;28;20001;-69
2023/07/03 04:14:31;;;;;;;;;;;16.50;99.90;;;;;;5078650;28;20424;-69
2023/07/03 04:17:00;;;;;;;;;;;16.50;99.90;;;;;;5078320;28;20100;-68
2023/07/03 04:19:28;;;;;;;;;;;16.50;99.90;;;;;;5078317;28;20023;-68
2023/07/03 04:21:55;;;;;;;;;;;16.50;99.90;;;;;;5078362;28;20024;-68
2023/07/03 04:24:21;;;;;;;;;;;16.50;99.90;;;;;;5080850;28;20011;-68
2023/07/03 04:26:48;;;;;;;;;;;16.50;99.90;;;;;;5080538;28;20133;-68
2023/07/03 04:29:15;;;;;;;;;;;16.60;99.90;;;;;;5082436;28;20181;-67
2023/07/03 04:31:41;;;;;;;;;;;16.70;99.90;;;;;;5081655;28;20080;-69
2023/07/03 04:34:09;;;;;;;;;;;16.70;99.90;;;;;;5082723;28;20012;-69
2023/07/03 04:36:36;;;;;;;;;;;16.70;99.90;;;;;;5080636;28;20030;-69
2023/07/03 04:39:03;;;;;;;;;;;16.60;99.90;;;;;;5080530;28;20051;-68
2023/07/03 04:41:30;;;;;;;;;;;16.70;99.90;;;;;;5081107;28;20009;-68
2023/07/03 04:44:00;;;;;;;;;;;16.80;99.90;;;;;;5080899;28;20099;-69
2023/07/03 04:46:27;;;;;;;;;;;16.80;99.90;;;;;;5081861;28;20013;-69
2023/07/03 04:48:59;;;;;;;;;;;16.80;99.90;;;;;;5081443;28;20001;-69
2023/07/03 04:51:30;;;;;;;;;;;16.80;99.90;;;;;;5080711;28;20001;-68
2023/07/03 04:53:57;;;;;;;;;;;16.90;99.90;;;;;;5081224;28;20041;-69
2023/07/03 04:56:24;;;;;;;;;;;16.90;99.90;;;;;;5082400;28;20001;-71
2023/07/03 04:58:53;;;;;;;;;;;16.90;99.90;;;;;;5082780;28;20012;-68
2023/07/03 05:01:20;;;;;;;;;;;16.90;99.90;;;;;;5082705;28;20366;-68
2023/07/03 05:03:47;;;;;;;;;;;16.90;99.90;;;;;;5083262;28;20372;-69
2023/07/03 05:06:13;;;;;;;;;;;16.90;99.90;;;;;;5081427;28;20084;-68
2023/07/03 05:08:41;;;;;;;;;;;16.80;99.90;;;;;;5081100;28;20013;-69
2023/07/03 05:11:08;;;;;;;;;;;16.90;99.90;;;;;;5080698;28;20012;-68
2023/07/03 05:13:34;;;;;;;;;;;16.90;99.90;;;;;;5081799;28;20008;-70
2023/07/03 05:16:01;;;;;;;;;;;16.90;99.90;;;;;;5080366;28;20052;-69
2023/07/03 05:18:28;;;;;;;;;;;17.00;99.90;;;;;;5080402;28;20104;-68
2023/07/03 05:20:54;;;;;;;;;;;17.00;99.90;;;;;;5080503;28;20001;-69
2023/07/03 05:23:21;;;;;;;;;;;17.00;99.90;;;;;;5080280;28;20410;-69
2023/07/03 05:25:49;;;;;;;;;;;17.00;99.90;;;;;;5080094;28;20052;-69
2023/07/03 05:28:16;;;;;;;;;;;17.10;99.90;;;;;;5079568;28;20173;-69
2023/07/03 05:30:42;;;;;;;;;;;17.20;99.90;;;;;;5081407;28;20001;-68
2023/07/03 05:33:10;;;;;;;;;;;17.20;99.90;;;;;;5080942;28;20001;-67
2023/07/03 05:35:37;;;;;;;;;;;17.20;99.90;;;;;;5080700;28;20054;-69
2023/07/03 05:38:04;;;;;;;;;;;17.20;99.90;;;;;;5080278;28;20027;-69
2023/07/03 05:40:31;;;;;;;;;;;17.30;99.90;;;;;;5081243;28;20005;-68
2023/07/03 05:42:59;;;;;;;;;;;17.40;37.20;;;;;;5080544;28;20119;-70
2023/07/03 05:45:25;;;;;;;;;;;17.50;21.70;;;;;;5080984;28;20011;-69
2023/07/03 05:47:52;;;;;;;;;;;17.60;9.70;;;;;;5080660;28;20057;-69
2023/07/03 05:50:19;;;;;;;;;;;17.70;4.20;;;;;;5080916;28;20048;-70
2023/07/03 05:52:48;;;;;;;;;;;17.70;13.60;;;;;;5079418;28;20012;-69
2023/07/03 05:55:15;;;;;;;;;;;17.70;6.50;;;;;;5079508;28;20103;-69
2023/07/03 05:57:41;;;;;;;;;;;17.70;5.30;;;;;;5080326;28;20066;-69
2023/07/03 06:00:13;;;;;;;;;;;17.70;3.20;;;;;;5079557;28;20003;-69
2023/07/03 06:02:40;;;;;;;;;;;17.70;5.70;;;;;;5080238;28;20048;-68
2023/07/03 06:05:07;;;;;;;;;;;17.60;10.70;;;;;;5080053;28;20005;-69
2023/07/03 06:07:34;;;;;;;;;;;17.60;1.60;;;;;;5079929;28;20059;-69
2023/07/03 06:10:00;;;;;;;;;;;17.60;16.40;;;;;;5079461;28;20088;-69
2023/07/03 06:12:29;;;;;;;;;;;17.70;6.30;;;;;;5079976;28;20103;-69
2023/07/03 06:14:56;;;;;;;;;;;17.70;2.80;;;;;;5079426;28;20044;-69
2023/07/03 06:17:24;;;;;;;;;;;17.70;8.80;;;;;;5080352;28;20001;-69
2023/07/03 06:19:51;;;;;;;;;;;17.80;1.20;;;;;;5078948;28;20012;-69
2023/07/03 06:22:18;;;;;;;;;;;17.80;1.00;;;;;;5079853;28;20001;-69
2023/07/03 06:24:44;;;;;;;;;;;17.90;1.00;;;;;;5080684;28;20012;-69
2023/07/03 06:27:11;;;;;;;;;;;17.90;9.00;;;;;;5078728;28;20013;-69
2023/07/03 06:29:38;;;;;;;;;;;17.90;1.00;;;;;;5079513;28;20001;-69
2023/07/03 06:32:05;;;;;;;;;;;18.00;1.00;;;;;;5078734;28;20445;-69
2023/07/03 06:34:35;;;;;;;;;;;18.10;1.00;;;;;;5080053;28;20462;-69
2023/07/03 06:37:05;;;;;;;;;;;18.10;1.00;;;;;;5077345;28;20031;-68
2023/07/03 06:39:31;;;;;;;;;;;18.20;1.00;;;;;;5076620;28;20445;-69
2023/07/03 06:41:58;;;;;;;;;;;18.30;1.00;;;;;;5079178;28;20338;-69
2023/07/03 06:44:25;;;;;;;;;;;18.40;1.00;;;;;;5077895;28;20336;-69
2023/07/03 06:46:51;;;;;;;;;;;18.40;1.00;;;;;;5077586;28;20035;-69
2023/07/03 06:49:20;;;;;;;;;;;18.20;1.00;;;;;;5078419;28;20005;-68
2023/07/03 06:51:48;;;;;;;;;;;18.20;1.00;;;;;;5079615;28;20009;-68
2023/07/03 06:54:15;;;;;;;;;;;18.10;1.00;;;;;;5077854;28;20477;-69
2023/07/03 06:56:41;;;;;;;;;;;18.00;1.00;;;;;;5079167;28;20400;-67
2023/07/03 06:59:08;;;;;;;;;;;17.90;4.50;;;;;;5077580;28;20012;-68
2023/07/03 07:01:35;;;;;;;;;;;17.90;12.70;;;;;;5077363;28;20051;-68
2023/07/03 07:04:01;;;;;;;;;;;17.90;5.90;;;;;;5078855;28;20013;-69
2023/07/03 07:06:29;;;;;;;;;;;18.00;4.40;;;;;;5079224;28;20013;-68
2023/07/03 07:08:57;;;;;;;;;;;18.00;9.30;;;;;;5078310;28;20005;-69
2023/07/03 07:11:25;;;;;;;;;;;18.10;13.80;;;;;;5078005;28;20055;-69
2023/07/03 07:13:55;;;;;;;;;;;18.00;20.50;;;;;;5078294;28;20011;-68
2023/07/03 07:16:23;;;;;;;;;;;18.00;4.40;;;;;;5078662;28;20011;-69
2023/07/03 07:18:51;;;;;;;;;;;18.10;8.20;;;;;;5077768;28;20092;-69
2023/07/03 07:21:18;;;;;;;;;;;18.10;45.90;;;;;;5078137;28;20005;-68
2023/07/03 07:23:46;;;;;;;;;;;18.10;19.10;;;;;;5078364;28;20101;-69
2023/07/03 07:26:14;;;;;;;;;;;18.20;8.40;;;;;;5077158;28;20295;-68
2023/07/03 07:28:41;;;;;;;;;;;18.10;36.20;;;;;;5077830;28;20436;-68
2023/07/03 07:31:08;;;;;;;;;;;18.10;41.30;;;;;;5076663;28;20001;-68
2023/07/03 07:33:34;;;;;;;;;;;18.20;10.80;;;;;;5078388;28;20100;-68
2023/07/03 07:36:01;;;;;;;;;;;18.30;1.10;;;;;;5078113;28;20065;-69
2023/07/03 07:38:27;;;;;;;;;;;18.30;1.00;;;;;;5078618;28;20104;-68
2023/07/03 07:41:01;;;;;;;;;;;18.40;1.00;;;;;;5078108;28;20011;-68
2023/07/03 07:43:32;;;;;;;;;;;18.40;10.00;;;;;;5077115;28;20073;-68
2023/07/03 07:45:58;;;;;;;;;;;18.30;5.20;;;;;;5076843;28;20334;-69
2023/07/03 07:48:26;;;;;;;;;;;18.30;1.00;;;;;;5076587;28;20064;-69
2023/07/03 07:50:53;;;;;;;;;;;18.20;1.00;;;;;;5077075;28;20001;-69
2023/07/03 07:53:20;;;;;;;;;;;18.30;1.00;;;;;;5076012;28;20321;-68
2023/07/03 07:55:46;;;;;;;;;;;18.40;1.00;;;;;;5076618;28;20329;-68
2023/07/03 07:58:14;;;;;;;;;;;18.30;1.00;;;;;;5081580;28;20422;-68
2023/07/03 08:00:42;;;;;;;;;;;18.20;4.00;;;;;;5081349;28;20002;-68
2023/07/03 08:03:08;;;;;;;;;;;18.30;1.00;;;;;;5080820;28;20011;-70
2023/07/03 08:05:36;;;;;;;;;;;18.40;5.40;;;;;;5080905;28;20341;-68
2023/07/03 08:08:03;;;;;;;;;;;18.50;6.10;;;;;;5079902;28;20100;-69
2023/07/03 08:10:30;;;;;;;;;;;18.60;18.90;;;;;;5079415;28;20095;-68
2023/07/03 08:12:56;;;;;;;;;;;18.70;90.00;;;;;;5080888;28;20138;-67
2023/07/03 08:15:23;;;;;;;;;;;18.90;99.90;;;;;;5080398;28;20334;-70
2023/07/03 08:17:51;;;;;;;;;;;18.90;99.90;;;;;;5079870;28;20084;-69
2023/07/03 08:20:18;;;;;;;;;;;18.90;99.90;;;;;;5081769;28;20444;-71
2023/07/03 08:22:44;;;;;;;;;;;18.90;99.90;;;;;;5080425;28;20102;-69
2023/07/03 08:25:11;;;;;;;;;;;18.90;1.00;;;;;;5080080;28;20001;-70
2023/07/03 08:27:38;;;;;;;;;;;18.90;1.00;;;;;;5082650;28;20100;-69
2023/07/03 08:30:06;;;;;;;;;;;19.00;99.90;;;;;;5081396;28;20011;-68
2023/07/03 08:32:33;;;;;;;;;;;19.00;1.00;;;;;;5080195;28;20008;-68
2023/07/03 08:35:01;;;;;;;;;;;18.90;1.00;;;;;;5081930;28;20011;-69
2023/07/03 08:37:28;;;;;;;;;;;19.00;1.00;;;;;;5082663;28;20039;-68
2023/07/03 08:39:55;;;;;;;;;;;19.10;1.00;;;;;;5082434;28;20000;-68
2023/07/03 08:42:24;;;;;;;;;;;19.10;1.00;;;;;;5083678;28;20001;-69
2023/07/03 08:44:51;;;;;;;;;;;19.10;99.90;;;;;;5084089;28;20008;-69
2023/07/03 08:47:20;;;;;;;;;;;19.10;1.00;;;;;;5082225;28;20013;-68
2023/07/03 08:49:47;;;;;;;;;;;19.00;1.00;;;;;;5081131;28;20461;-67
2023/07/03 08:52:18;;;;;;;;;;;19.10;1.00;;;;;;5081063;28;20048;-68
2023/07/03 08:54:45;;;;;;;;;;;19.20;1.00;;;;;;5080217;28;20332;-68
2023/07/03 08:57:12;;;;;;;;;;;19.10;99.90;;;;;;5080019;28;20421;-70
2023/07/03 08:59:39;;;;;;;;;;;19.10;1.00;;;;;;5081289;28;20011;-69
2023/07/03 09:02:12;;;;;;;;;;;19.10;1.00;;;;;;5081008;28;20162;-67
2023/07/03 09:04:44;;;;;;;;;;;19.30;99.90;;;;;;5079703;28;20007;-67
2023/07/03 09:07:12;;;;;;;;;;;19.40;1.00;;;;;;5079769;28;20023;-69
2023/07/03 09:09:44;;;;;;;;;;;19.40;1.00;;;;;;5078481;28;20287;-68
2023/07/03 09:12:15;;;;;;;;;;;19.50;99.90;;;;;;5078878;28;19998;-68
2023/07/03 09:14:44;;;;;;;;;;;19.70;99.90;;;;;;5079430;28;20366;-69
2023/07/03 09:17:14;;;;;;;;;;;19.70;1.00;;;;;;5079944;28;20005;-68
2023/07/03 09:19:43;;;;;;;;;;;19.70;1.00;;;;;;5079646;28;20001;-68
2023/07/03 09:22:12;;;;;;;;;;;19.70;99.90;;;;;;5079133;28;20012;-68
2023/07/03 09:24:43;;;;;;;;;;;19.70;99.90;;;;;;5079947;28;20337;-67
2023/07/03 09:27:12;;;;;;;;;;;19.80;99.90;;;;;;5079960;28;20023;-68
2023/07/03 09:29:39;;;;;;;;;;;20.00;99.90;;;;;;5079996;28;20001;-68
2023/07/03 09:32:06;;;;;;;;;;;20.20;95.20;;;;;;5078740;28;20084;-68
2023/07/03 09:34:48;;;;;;;;;;;20.20;93.30;;;;;;5078997;28;20313;-68
2023/07/03 09:37:14;;;;;;;;;;;20.20;92.20;;;;;;5080557;28;20032;-68
2023/07/03 09:39:47;;;;;;;;;;;20.30;93.60;;;;;;5079952;28;20012;-68
2023/07/03 09:42:15;;;;;;;;;;;20.30;91.10;;;;;;5078530;28;20104;-69
2023/07/03 09:44:42;;;;;;;;;;;20.10;89.10;;;;;;5078299;28;20062;-69
2023/07/03 09:47:16;;;;;;;;;;;20.10;90.10;;;;;;5078508;28;20022;-68
2023/07/03 09:49:43;;;;;;;;;;;20.20;90.70;;;;;;5078309;28;20055;-67
2023/07/03 09:52:10;;;;;;;;;;;20.20;83.20;;;;;;5078055;28;20036;-69
2023/07/03 09:54:41;;;;;;;;;;;20.20;81.00;;;;;;5078335;28;20017;-70
2023/07/03 09:57:18;;;;;;;;;;;20.20;80.70;;;;;;5078629;28;19997;-68
2023/07/03 09:59:47;;;;;;;;;;;20.20;83.10;;;;;;5078762;28;20007;-67
2023/07/03 10:02:14;;;;;;;;;;;20.30;91.00;;;;;;5078758;28;20001;-68
2023/07/03 10:04:43;;;;;;;;;;;20.40;83.90;;;;;;5078696;28;20337;-68
2023/07/03 10:07:13;;;;;;;;;;;20.40;87.00;;;;;;5078109;28;20002;-68
2023/07/03 10:09:42;;;;;;;;;;;20.20;85.90;;;;;;5077435;28;20084;-68
2023/07/03 10:12:11;;;;;;;;;;;20.10;84.90;;;;;;5077500;28;20001;-69
2023/07/03 10:14:42;;;;;;;;;;;20.00;82.40;;;;;;5078084;28;20001;-68
2023/07/03 10:17:12;;;;;;;;;;;20.00;82.60;;;;;;5078446;28;20402;-68
2023/07/03 10:19:44;;;;;;;;;;;20.00;77.00;;;;;;5077105;28;20024;-68
2023/07/03 10:22:12;;;;;;;;;;;20.00;80.00;;;;;;5077988;28;20040;-67
2023/07/03 10:24:40;;;;;;;;;;;20.30;75.60;;;;;;5078064;28;20002;-68
2023/07/03 10:27:08;;;;;;;;;;;20.50;76.90;;;;;;5078071;28;20464;-67
2023/07/03 10:29:38;;;;;;;;;;;20.60;78.10;;;;;;5077885;28;20444;-68
2023/07/03 10:32:07;;;;;;;;;;;20.40;75.60;;;;;;5077505;28;20048;-69
2023/07/03 10:34:37;;;;;;;;;;;20.20;76.00;;;;;;5077417;28;20062;-68
2023/07/03 10:37:05;;;;;;;;;;;20.20;75.50;;;;;;5077666;28;20021;-68
2023/07/03 10:39:36;;;;;;;;;;;20.20;75.00;;;;;;5078515;28;20031;-67
2023/07/03 10:42:04;;;;;;;;;;;20.30;74.40;;;;;;5077421;28;20020;-68
2023/07/03 10:44:32;;;;;;;;;;;20.40;75.50;;;;;;5078121;28;20002;-68
2023/07/03 10:47:02;;;;;;;;;;;20.60;77.70;;;;;;5077641;28;20001;-69
2023/07/03 10:49:31;;;;;;;;;;;20.70;86.60;;;;;;5076419;28;20409;-68
2023/07/03 10:52:07;;;;;;;;;;;21.00;78.50;;;;;;5077582;28;20005;-69
2023/07/03 10:54:37;;;;;;;;;;;20.90;72.90;;;;;;5077078;28;20048;-69
2023/07/03 10:57:05;;;;;;;;;;;20.90;71.50;;;;;;5077768;28;20001;-69
2023/07/03 10:59:33;;;;;;;;;;;20.80;71.10;;;;;;5077497;28;20048;-69
2023/07/03 11:02:06;;;;;;;;;;;20.80;77.20;;;;;;5076990;28;20337;-69
2023/07/03 11:04:37;;;;;;;;;;;20.80;72.20;;;;;;5076700;28;20008;-69
2023/07/03 11:07:05;;;;;;;;;;;20.80;75.50;;;;;;5077134;28;20001;-68
2023/07/03 11:09:40;;;;;;;;;;;20.60;70.60;;;;;;5076951;28;20013;-68
2023/07/03 11:12:14;;;;;;;;;;;20.40;72.50;;;;;;5077493;28;20001;-68
2023/07/03 11:14:44;;;;;;;;;;;20.20;72.10;;;;;;5077615;28;20033;-69
2023/07/03 11:17:15;;;;;;;;;;;20.20;70.30;;;;;;5076601;28;20008;-68
2023/07/03 11:19:44;;;;;;;;;;;20.20;70.30;;;;;;5077588;28;20009;-69
2023/07/03 11:22:15;;;;;;;;;;;20.20;73.00;;;;;;5077752;28;20096;-69
2023/07/03 11:24:49;;;;;;;;;;;20.20;73.90;;;;;;5077641;28;20103;-68
2023/07/03 11:27:19;;;;;;;;;;;20.20;75.70;;;;;;5077146;28;19997;-67
2023/07/03 11:29:46;;;;;;;;;;;20.30;76.40;;;;;;5076710;28;20001;-69
2023/07/03 11:32:15;;;;;;;;;;;20.70;78.10;;;;;;5076240;28;20001;-69
2023/07/03 11:34:42;;;;;;;;;;;21.40;76.20;;;;;;5077127;28;20001;-70
2023/07/03 11:37:23;;;;;;;;;;;21.30;74.50;;;;;;5075625;28;20116;-68
2023/07/03 11:39:50;;;;;;;;;;;21.20;76.00;;;;;;5077040;28;20011;-68
2023/07/03 11:42:23;;;;;;;;;;;20.90;75.40;;;;;;5080816;28;20001;-68
2023/07/03 11:44:57;;;;;;;;;;;20.80;78.30;;;;;;5078921;28;19997;-68
2023/07/03 11:47:26;;;;;;;;;;;20.90;78.30;;;;;;5078099;28;20001;-69
2023/07/03 11:49:54;;;;;;;;;;;20.90;78.20;;;;;;5077535;28;20087;-69
2023/07/03 11:52:24;;;;;;;;;;;20.90;77.80;;;;;;5077030;28;20333;-68
2023/07/03 11:54:58;;;;;;;;;;;20.90;76.20;;;;;;5078469;28;20033;-69
2023/07/03 11:57:29;;;;;;;;;;;21.00;77.20;;;;;;5077400;28;20056;-69
2023/07/03 12:00:13;;;;;;;;;;;21.00;77.70;;;;;;5077308;28;20349;-68
2023/07/03 12:02:50;;;;;;;;;;;21.20;74.10;;;;;;5076896;28;19997;-68
2023/07/03 12:05:35;;;;;;;;;;;21.20;78.70;;;;;;5076559;28;19997;-69
2023/07/03 12:08:01;;;;;;;;;;;21.90;75.90;;;;;;5076532;28;20017;-68
2023/07/03 12:10:39;;;;;;;;;;;21.70;78.50;;;;;;5075613;28;20005;-68
2023/07/03 12:13:24;;;;;;;;;;;21.00;77.00;;;;;;5076165;28;20012;-69
2023/07/03 12:15:55;;;;;;;;;;;20.40;78.70;;;;;;5076200;28;20103;-68
2023/07/03 12:18:23;;;;;;;;;;;20.50;83.00;;;;;;5076474;28;19997;-69
2023/07/03 12:20:56;;;;;;;;;;;20.30;79.30;;;;;;5076451;28;20399;-69
2023/07/03 12:23:33;;;;;;;;;;;20.20;78.70;;;;;;5076339;28;20037;-69
2023/07/03 12:26:04;;;;;;;;;;;20.20;78.10;;;;;;5077020;28;20092;-68
2023/07/03 12:28:30;;;;;;;;;;;20.20;77.20;;;;;;5077188;28;20021;-67
2023/07/03 12:31:11;;;;;;;;;;;20.30;76.60;;;;;;5076478;28;20001;-69
2023/07/03 12:33:47;;;;;;;;;;;20.30;77.80;;;;;;5077810;28;20411;-70
2023/07/03 12:36:20;;;;;;;;;;;20.30;77.20;;;;;;5076656;28;20023;-69
2023/07/03 12:38:46;;;;;;;;;;;20.10;77.00;;;;;;5077447;28;20039;-69
2023/07/03 12:41:13;;;;;;;;;;;20.00;78.30;;;;;;5076767;28;20012;-69
2023/07/03 12:43:43;;;;;;;;;;;20.10;81.00;;;;;;5078510;28;20001;-69
2023/07/03 12:46:11;;;;;;;;;;;20.10;81.20;;;;;;5080629;28;20001;-68
2023/07/03 12:48:39;;;;;;;;;;;20.20;82.20;;;;;;5081187;28;20437;-68
2023/07/03 12:51:07;;;;;;;;;;;20.30;82.50;;;;;;5081089;28;20092;-69
2023/07/03 12:53:34;;;;;;;;;;;20.40;83.50;;;;;;5081293;28;20070;-68
2023/07/03 12:56:03;;;;;;;;;;;20.40;83.30;;;;;;5080675;28;20001;-69
2023/07/03 12:58:33;;;;;;;;;;;20.50;84.40;;;;;;5079772;28;20001;-69
2023/07/03 13:01:00;;;;;;;;;;;20.60;83.30;;;;;;5080342;28;20001;-69
2023/07/03 13:03:27;;;;;;;;;;;20.70;84.80;;;;;;5079895;28;20001;-69
2023/07/03 13:05:55;;;;;;;;;;;20.60;88.10;;;;;;5080776;28;20012;-69
2023/07/03 13:08:22;;;;;;;;;;;20.80;91.20;;;;;;5079514;28;20115;-68
2023/07/03 13:10:58;;;;;;;;;;;20.90;84.30;;;;;;5079884;28;20411;-69
2023/07/03 13:13:26;;;;;;;;;;;20.90;86.20;;;;;;5080168;28;20011;-69
2023/07/03 13:15:53;;;;;;;;;;;21.10;90.90;;;;;;5079646;28;20001;-69
2023/07/03 13:18:22;;;;;;;;;;;21.60;92.50;;;;;;5078950;28;20001;-69
2023/07/03 13:20:58;;;;;;;;;;;21.80;87.90;;;;;;5078497;28;20013;-68
2023/07/03 13:23:28;;;;;;;;;;;21.90;83.80;;;;;;5079233;28;20114;-67
2023/07/03 13:25:55;;;;;;;;;;;21.70;84.80;;;;;;5078874;28;20015;-68
2023/07/03 13:28:24;;;;;;;;;;;21.60;85.60;;;;;;5078649;28;20178;-68
2023/07/03 13:31:03;;;;;;;;;;;21.30;84.80;;;;;;5078865;28;20084;-68
2023/07/03 13:33:29;;;;;;;;;;;21.10;83.80;;;;;;5079336;28;20084;-69
2023/07/03 13:36:18;;;;;;;;;;;20.90;84.20;;;;;;5079230;28;20012;-68
2023/07/03 13:38:45;;;;;;;;;;;20.90;83.70;;;;;;5079077;28;20008;-68
2023/07/03 13:41:12;;;;;;;;;;;21.20;82.90;;;;;;5078790;28;20005;-68
2023/07/03 13:43:38;;;;;;;;;;;21.20;83.30;;;;;;5079957;28;20005;-68
2023/07/03 13:46:05;;;;;;;;;;;21.40;81.30;;;;;;5078850;28;20063;-69
2023/07/03 13:48:31;;;;;;;;;;;21.60;78.50;;;;;;5078520;28;20023;-69
2023/07/03 13:50:58;;;;;;;;;;;21.50;75.70;;;;;;5078912;28;20015;-69
2023/07/03 13:53:27;;;;;;;;;;;21.80;81.60;;;;;;5078083;28;20001;-69
2023/07/03 13:55:54;;;;;;;;;;;21.80;80.80;;;;;;5077931;28;20001;-69
2023/07/03 13:58:21;;;;;;;;;;;22.10;82.80;;;;;;5077427;28;20012;-68
2023/07/03 14:00:47;;;;;;;;;;;22.90;76.20;;;;;;5078079;28;20375;-68
2023/07/03 14:03:15;;;;;;;;;;;23.00;72.90;;;;;;5077696;28;20001;-68
2023/07/03 14:05:42;;;;;;;;;;;22.60;72.90;;;;;;5077741;28;20376;-69
2023/07/03 14:08:09;;;;;;;;;;;22.10;74.30;;;;;;5077280;28;20081;-68
2023/07/03 14:10:37;;;;;;;;;;;21.80;76.40;;;;;;5077855;28;20450;-68
2023/07/03 14:13:05;;;;;;;;;;;21.90;75.90;;;;;;5077754;28;20236;-68
2023/07/03 14:15:32;;;;;;;;;;;21.80;76.60;;;;;;5077776;28;20012;-69
2023/07/03 14:17:59;;;;;;;;;;;21.50;77.40;;;;;;5078308;28;20016;-70
2023/07/03 14:20:25;;;;;;;;;;;21.30;78.90;;;;;;5078162;28;20001;-69
2023/07/03 14:22:52;;;;;;;;;;;21.40;78.70;;;;;;5077586;28;20418;-69
2023/07/03 14:25:19;;;;;;;;;;;21.50;83.30;;;;;;5077081;28;20011;-67